AirNav   Everest Fuels
 
 945 users online  

7N4 Honey Acres Airport
Clinton, Michigan, USA

GOING TO CLINTON?


FAA INFORMATION EFFECTIVE 11 AUGUST 2022

Location

FAA Identifier: 7N4
Lat/Long: 42-04-39.9000N 083-59-09.6850W
42-04.665000N 083-59.161417W
42.0777500,-83.9860236
(estimated)
Elevation: 825 ft. / 251 m (estimated)
Variation: 04W (1985)
From city: 1 mile W of CLINTON, MI
Time zone: UTC -4 (UTC -5 during Standard Time)
Zip code: 49236

Airport Operations

Airport use: Open to the public
Activation date: 07/1990
Control tower: no
ARTCC: CLEVELAND CENTER
FSS: LANSING FLIGHT SERVICE STATION
NOTAMs facility: LAN (NOTAM-D service available)
Attendance: IREG
Wind indicator: yes
Segmented circle: no

Airport Communications

CTAF: 122.9
WX ASOS at ADG (13 nm S): 118.375 (517-265-9089)
WX ASOS at ARB (14 nm NE): PHONE 734-668-7173

Nearby radio navigation aids

VOR radial/distance  VOR name  Freq  Var
CRLr277/23.6CARLETON VOR/DME115.7003W
SVMr224/26.4SALEM VORTAC114.3003W
DXOr260/28.7DETROIT VOR/DME113.4006W
LFDr093/34.7LITCHFIELD VOR/DME111.2005W

 
NDB name  Hdg/Dist  Freq  Var  ID
TECUMSEH307/5.223906WTCU - -.-. ..-
ADRIAN024/13.127806WADG .- -.. --.
GROSSE ILE275/37.141907WRYS .-. -.-- ...

Airport Services

Parking: tiedowns

Runway Information

Runway 18/36

Dimensions: 3800 x 90 ft. / 1158 x 27 m
Surface: turf, in good condition
Runway edge markings: RWY 36 THR & DSPLCD THR MKD WITH 3 FT YELLOW CONES.
RUNWAY 18  RUNWAY 36
Latitude: 42-04.977667N42-04.352333N
Longitude: 083-59.176000W083-59.146833W
Elevation: 825.0 ft.817.0 ft.
Traffic pattern: leftleft
Runway heading: 182 magnetic, 178 true002 magnetic, 358 true
Displaced threshold: 600 ft.600 ft.
Obstructions: 40 ft. trees, 106 ft. left of centerline32 ft. bldg, lighted, 129 ft. from runway, 55 ft. left of centerline, 4:1 slope to clear
APCH RATIO 8:1 AT DSPLCD THR OVER 80 FT TREE, 714 FT DSTC, 125 L.

Airport Ownership and Management from official FAA records

Ownership: Privately-owned
Owner: RAYMOND L. KUSSMAUL
12447 MATTHEWS HWY
CLINTON, MI 49236
Phone 517-902-3270
Manager: RAYMOND L. KUSSMAUL
12447 MATTHEWS HWY
CLINTON, MI 49236
Phone 517-902-3270

Airport Operational Statistics

Aircraft based on the field: 4
Single engine airplanes: 4
    
Aircraft operations: avg 38/month *
50% transient general aviation
50% local general aviation
* for 12-month period ending 31 December 2017

Additional Remarks

BUILDING & HNGR IN PRIMARY SFC.
RWY 36, +18 FT PLINE 430 FT FROM THR MKD WITH ORANGE BALLS.
RWY SOFT DURG SPRING THAW AND AFT HEAVY RAINS.
FOR CD CTC DETROIT APCH AT 734-955-1404.
DEER AND BIRDS ON & INVOF RWY.

Instrument Procedures

There are no published instrument procedures at 7N4.

Some nearby airports with instrument procedures:

KADG - Lenawee County Airport (13 nm S)
KARB - Ann Arbor Municipal Airport (14 nm NE)
KYIP - Willow Run Airport (22 nm NE)
KJXN - Jackson County Airport/Reynolds Field (24 nm NW)
KDUH - Toledo Suburban Airport (25 nm SE)
 
Loc | Ops | Rwys | IFR | FBO | Links
Com | Nav | Svcs | Stats | Notes
Area around 7N4 (Honey Acres Airport)
 
Road maps at: MapQuest Bing Google
 
Aerial photo
WARNING: Photo may not be current or correct
Aerial photo of 7N4 (Honey Acres Airport)
Credit: M. Coleman - LocalHangar.com

Do you have a better or more recent aerial photo of Honey Acres Airport that you would like to share? If so, please send us your photo.

 
Sectional chart

 
Airport distance calculator
Flying to Honey Acres Airport? Find the distance to fly.

From to 7N4

Sunrise and sunset
Times for 13-Aug-2022
 Local
(UTC-4)
 Zulu
(UTC)
Morning civil twilight06:1210:12
Sunrise06:4210:42
Sunset20:3900:39
Evening civil twilight21:0901:09

Current date and time
Zulu (UTC)  14-Aug-2022 01:25:41
Local (UTC-4)  13-Aug-2022 21:25:41
 
METAR
KADG 
13nm S 
140053Z AUTO 10010KT 4SM RA BR FEW004 BKN080 OVC100 15/14 A3007 RMK AO2 PRESFR SLP185 P0008 T01500144
KARB 
14nm NE 
734-668-7173
140053Z AUTO 00000KT 10SM BKN047 OVC055 15/13 A3010 RMK AO2 RAB2357E25 SLP191 P0001 T01500133
KYIP 
22nm NE 
140053Z 00000KT 10SM FEW043 OVC055 18/12 A3011 RMK AO2 RAB05E30 SLP190 P0000 T01780122 $
KJXN 
24nm NW 
140056Z 09004KT 10SM FEW110 14/12 A3010 RMK AO2 RAE37 SLP191 T01390122 $
KDUH 
26nm SE 
140055Z AUTO 00000KT 10SM RA SCT034 SCT050 BKN070 16/16 A3010 RMK AO2 T01640163
TAF
KYIP 
22nm NE 
132320Z 1400/1424 21004KT P6SM VCSH SCT035 OVC070 FM140800 VRB04KT 5SM -SHRA BR BKN045 OVC060 FM141200 11006KT P6SM VCSH BKN035 OVC050 TEMPO 1412/1416 5SM -SHRA BR BKN022 OVC035 FM141600 11010KT P6SM BKN060 PROB30 1416/1420 4SM -SHRA BR BKN030 OVC050
KJXN 
24nm NW 
132330Z 1400/1424 10005KT 3SM -SHRA BR SCT025 BKN050 FM140200 12006KT 5SM -SHRA SCT025 OVC050 TEMPO 1402/1406 3SM -SHRA BR OVC025 FM141100 14007KT 4SM BR VCSH OVC025 FM141300 12006KT 4SM -DZ BR OVC008 FM141600 12008KT P6SM OVC015
NOTAMs
Click for the latest NOTAMs
NOTAMs are issued by the DoD/FAA and will open in a separate window not controlled by AirNav.

 

 
 

Would you like to see your business listed on this page?

 If your business provides an interesting product or service to pilots, flight crews, aircraft, or users of the Honey Acres Airport, you should consider listing it here.  To start the listing process, click on the button below
 
Add a business
 

Other Pages about Honey Acres Airport

Page from the Michigan Airport Directory (PDF)
 
Update a link
 
Copyright © AirNav, LLC. All rights reserved. Privacy Policy  Contact